Huron, Tennessee
Current Conditions -  °F | °C
As of 7:35 PM on Tuesday 27 Jan 2015 (Local Time) from KPVE Reporting Station
Clear Clear  
Wind Chill:   Ceiling: Unl
Heat Index:   Visibility: 10mi
Dew Point: -2°   Wind: 3mph
Humidity: 70%   Direction: 40°NE
Pressure: 30.18"   Gusts: NA
Location:  35.59°N, 88.53°W
Report Text: KPVE 280135Z AUTO 04003KT 10SM CLR 03/M02 A3018 RMK
Loading
Personal Weather Stations






























Interactive Weather Map New forecast layout! Learn more

10-Day Weather Forecast

Advertisements
Track Severe Weather on mobile